createdAt,value
2022-12-04T00:01:55.854Z,31.80
2022-12-04T00:04:24.025Z,27.05
2022-12-04T00:06:57.153Z,30.98
2022-12-04T00:09:26.934Z,29.95
2022-12-04T00:11:55.081Z,30.75
2022-12-04T00:14:23.359Z,30.65
2022-12-04T00:16:51.641Z,27.67
2022-12-04T00:19:21.389Z,30.67
2022-12-04T00:21:51.178Z,29.63
2022-12-04T00:24:19.600Z,24.45
2022-12-04T00:26:47.745Z,28.95
2022-12-04T00:29:16.074Z,29.50
2022-12-04T00:31:44.371Z,33.45
2022-12-04T00:34:12.886Z,28.83
2022-12-04T00:36:42.574Z,34.05
2022-12-04T00:39:11.128Z,35.28
2022-12-04T00:41:39.785Z,31.17
2022-12-04T00:44:07.926Z,30.08
2022-12-04T00:46:36.329Z,26.92
2022-12-04T00:49:04.703Z,32.25
2022-12-04T00:51:33.028Z,26.60
2022-12-04T00:54:02.598Z,31.55
2022-12-04T00:56:30.858Z,29.13
2022-12-04T00:59:01.414Z,30.42
2022-12-04T01:01:31.705Z,30.73
2022-12-04T01:04:00.048Z,25.20
2022-12-04T01:06:30.150Z,27.00
2022-12-04T01:08:59.488Z,29.50
2022-12-04T01:11:30.962Z,29.33
2022-12-04T01:13:59.426Z,31.20
2022-12-04T01:16:29.959Z,27.40
2022-12-04T01:18:58.207Z,27.40
2022-12-04T01:21:26.393Z,30.92
2022-12-04T01:23:54.601Z,26.63
2022-12-04T01:26:22.736Z,30.38
2022-12-04T01:28:52.385Z,26.67
2022-12-04T01:31:22.632Z,28.48
2022-12-04T01:33:51.752Z,25.25
2022-12-04T01:36:23.621Z,28.80
2022-12-04T01:38:52.044Z,27.58
2022-12-04T01:41:23.294Z,27.02
2022-12-04T01:44:18.634Z,26.73
2022-12-04T01:46:47.922Z,23.38
2022-12-04T01:49:20.054Z,27.23
2022-12-04T01:51:52.473Z,23.98
2022-12-04T01:54:28.849Z,23.55
2022-12-04T01:57:02.218Z,20.83
2022-12-04T01:59:36.493Z,24.80
2022-12-04T02:02:09.701Z,22.55
2022-12-04T02:04:39.117Z,18.50
2022-12-04T02:07:07.409Z,23.40
2022-12-04T02:09:39.337Z,23.40
2022-12-04T02:12:14.613Z,24.63
2022-12-04T02:14:53.532Z,25.70
2022-12-04T02:17:28.477Z,29.33
2022-12-04T02:20:09.784Z,20.95
2022-12-04T02:23:09.615Z,20.15
2022-12-04T02:25:45.503Z,29.23
2022-12-04T02:28:23.984Z,25.80
2022-12-04T02:30:54.080Z,21.77
2022-12-04T02:33:26.677Z,23.58
2022-12-04T02:36:03.658Z,25.33
2022-12-04T02:38:37.063Z,25.02
2022-12-04T02:41:10.829Z,25.23
2022-12-04T02:43:45.416Z,24.30
2022-12-04T02:46:19.816Z,23.08
2022-12-04T02:48:51.448Z,24.45
2022-12-04T02:51:22.358Z,27.23
2022-12-04T02:53:55.935Z,19.92
2022-12-04T02:56:27.459Z,24.95
2022-12-04T02:59:00.093Z,26.75
2022-12-04T03:01:33.551Z,23.85
2022-12-04T03:04:06.568Z,24.85
2022-12-04T03:06:37.832Z,26.13
2022-12-04T03:09:11.670Z,24.38
2022-12-04T03:11:41.671Z,27.67
2022-12-04T03:14:15.926Z,23.48
2022-12-04T03:16:44.612Z,25.58
2022-12-04T03:19:17.263Z,25.60
2022-12-04T03:21:50.048Z,23.67
2022-12-04T03:24:24.637Z,30.15
2022-12-04T03:26:57.957Z,25.80
2022-12-04T03:29:34.461Z,27.30
2022-12-04T03:32:09.322Z,26.13
2022-12-04T03:34:43.872Z,27.42
2022-12-04T03:37:16.864Z,24.80
2022-12-04T03:39:53.538Z,27.92
2022-12-04T03:42:25.353Z,29.88
2022-12-04T03:45:02.185Z,29.05
2022-12-04T03:47:37.186Z,28.85
2022-12-04T03:50:13.625Z,25.73
2022-12-04T03:52:49.711Z,27.13
2022-12-04T03:55:25.622Z,25.20
2022-12-04T03:57:57.756Z,27.90
2022-12-04T04:00:27.451Z,27.20
2022-12-04T04:03:00.162Z,25.98
2022-12-04T04:05:31.331Z,27.40
2022-12-04T04:08:17.890Z,24.88
2022-12-04T04:10:46.778Z,26.63
2022-12-04T04:13:35.978Z,23.60
2022-12-04T04:16:25.656Z,19.05
2022-12-04T04:19:12.986Z,19.80
2022-12-04T04:22:01.495Z,20.10
2022-12-04T04:24:34.879Z,20.40
2022-12-04T04:27:04.160Z,20.85
2022-12-04T04:29:32.713Z,19.95
2022-12-04T04:32:09.156Z,17.67
2022-12-04T04:34:43.252Z,19.13
2022-12-04T04:37:18.148Z,16.75
2022-12-04T04:39:54.319Z,18.77
2022-12-04T04:42:27.862Z,20.33
2022-12-04T04:45:02.557Z,19.05
2022-12-04T04:47:35.622Z,21.83
2022-12-04T04:50:05.846Z,16.02
2022-12-04T04:52:34.827Z,19.23
2022-12-04T04:55:04.644Z,17.25
2022-12-04T04:57:35.941Z,17.40
2022-12-04T05:00:05.669Z,17.45
2022-12-04T05:02:35.755Z,18.13
2022-12-04T05:05:04.127Z,18.77
2022-12-04T05:07:32.212Z,16.83
2022-12-04T05:10:00.545Z,20.45
2022-12-04T05:12:28.906Z,17.85
2022-12-04T05:14:57.040Z,18.08
2022-12-04T05:17:25.280Z,16.77
2022-12-04T05:19:54.524Z,17.00
2022-12-04T05:22:25.316Z,14.75
2022-12-04T05:24:54.217Z,15.55
2022-12-04T05:27:23.055Z,18.98
2022-12-04T05:29:54.387Z,14.88
2022-12-04T05:32:23.808Z,17.77
2022-12-04T05:34:52.349Z,15.52
2022-12-04T05:37:22.688Z,12.95
2022-12-04T05:39:50.783Z,16.38
2022-12-04T05:42:18.850Z,15.52
2022-12-04T05:44:46.982Z,19.17
2022-12-04T05:47:15.127Z,17.58
2022-12-04T05:49:43.291Z,14.93
2022-12-04T05:52:11.591Z,17.38
2022-12-04T05:54:41.387Z,14.35
2022-12-04T05:57:09.435Z,19.10
2022-12-04T05:59:37.746Z,17.90
2022-12-04T06:02:05.908Z,13.50
2022-12-04T06:04:34.136Z,17.00
2022-12-04T06:07:02.296Z,15.57
2022-12-04T06:09:30.577Z,20.98
2022-12-04T06:12:00.594Z,14.88
2022-12-04T06:14:28.710Z,19.13
2022-12-04T06:16:56.973Z,14.38
2022-12-04T06:19:25.480Z,19.10
2022-12-04T06:21:54.527Z,16.45
2022-12-04T06:24:24.288Z,14.20
2022-12-04T06:27:27.348Z,19.95
2022-12-04T06:29:46.605Z,17.55
2022-12-04T06:32:19.724Z,16.13
2022-12-04T06:34:52.698Z,16.58
2022-12-04T06:37:21.496Z,15.07
2022-12-04T06:39:49.717Z,16.50
2022-12-04T06:42:18.415Z,20.30
2022-12-04T06:44:48.092Z,19.63
2022-12-04T06:47:16.240Z,21.05
2022-12-04T06:49:46.052Z,16.90
2022-12-04T06:52:14.234Z,16.05
2022-12-04T06:54:42.575Z,16.45
2022-12-04T06:57:10.845Z,14.38
2022-12-04T06:59:39.219Z,18.33
2022-12-04T07:02:10.536Z,17.58
2022-12-04T07:04:38.920Z,20.88
2022-12-04T07:07:09.094Z,15.55
2022-12-04T07:09:37.637Z,18.42
2022-12-04T07:12:06.450Z,14.93
2022-12-04T07:14:34.647Z,17.88
2022-12-04T07:17:02.858Z,16.75
2022-12-04T07:19:32.451Z,15.48
2022-12-04T07:22:00.559Z,16.60
2022-12-04T07:24:28.685Z,18.88
2022-12-04T07:26:56.839Z,21.63
2022-12-04T07:29:24.900Z,17.60
2022-12-04T07:31:53.187Z,17.77
2022-12-04T07:34:21.357Z,19.65
2022-12-04T07:36:50.793Z,18.90
2022-12-04T07:39:18.811Z,18.70
2022-12-04T07:41:46.951Z,20.45
2022-12-04T07:44:15.056Z,19.45
2022-12-04T07:46:43.219Z,15.50
2022-12-04T07:49:13.379Z,19.70
2022-12-04T07:51:41.499Z,15.48
2022-12-04T07:54:11.074Z,15.48
2022-12-04T07:56:39.216Z,19.35
2022-12-04T07:59:07.284Z,19.05
2022-12-04T08:01:35.558Z,19.77
2022-12-04T08:04:04.514Z,17.45
2022-12-04T08:06:35.039Z,18.95
2022-12-04T08:09:09.170Z,18.77
2022-12-04T08:11:39.809Z,19.75
2022-12-04T08:14:09.775Z,15.90
2022-12-04T08:16:38.376Z,15.60
2022-12-04T08:19:06.820Z,14.32
2022-12-04T08:21:35.063Z,19.20
2022-12-04T08:24:04.151Z,17.20
2022-12-04T08:26:33.837Z,17.80
2022-12-04T08:29:04.001Z,16.42
2022-12-04T08:31:34.083Z,17.42
2022-12-04T08:34:04.950Z,18.45
2022-12-04T08:36:33.986Z,20.42
2022-12-04T08:39:02.196Z,23.17
2022-12-04T08:41:30.575Z,15.00
2022-12-04T08:43:59.631Z,17.40
2022-12-04T08:46:29.930Z,18.35
2022-12-04T08:48:58.565Z,26.40
2022-12-04T08:51:29.190Z,20.25
2022-12-04T08:53:58.017Z,18.88
2022-12-04T08:56:27.595Z,18.15
2022-12-04T08:58:57.396Z,20.98
2022-12-04T09:01:26.741Z,15.00
2022-12-04T09:03:57.035Z,19.67
2022-12-04T09:06:25.782Z,20.35
2022-12-04T09:08:55.514Z,22.52
2022-12-04T09:11:25.969Z,19.90
2022-12-04T09:13:54.408Z,21.48
2022-12-04T09:16:24.909Z,18.67
2022-12-04T09:18:53.419Z,21.30
2022-12-04T09:21:24.203Z,13.93
2022-12-04T09:23:52.690Z,20.17
2022-12-04T09:26:24.859Z,17.67
2022-12-04T09:28:54.222Z,21.98
2022-12-04T09:31:23.311Z,22.15
2022-12-04T09:33:52.246Z,17.60
2022-12-04T09:36:20.886Z,16.40
2022-12-04T09:38:52.149Z,20.87
2022-12-04T09:41:46.614Z,17.83
2022-12-04T09:44:19.660Z,17.52
2022-12-04T09:46:52.884Z,14.93
2022-12-04T09:49:26.661Z,18.60
2022-12-04T09:51:58.954Z,17.02
2022-12-04T09:54:35.200Z,17.85
2022-12-04T09:57:13.773Z,21.23
2022-12-04T09:59:42.023Z,17.35
2022-12-04T10:02:35.212Z,18.10
2022-12-04T10:05:03.994Z,18.00
2022-12-04T10:07:36.660Z,18.77
2022-12-04T10:10:14.253Z,13.98
2022-12-04T10:12:51.647Z,15.35
2022-12-04T10:15:30.742Z,19.30
2022-12-04T10:18:23.365Z,14.80
2022-12-04T10:21:14.699Z,14.93
2022-12-04T10:23:55.978Z,19.98
2022-12-04T10:26:31.996Z,16.95
2022-12-04T10:29:03.705Z,23.42
2022-12-04T10:31:34.850Z,20.17
2022-12-04T10:34:07.077Z,17.63
2022-12-04T10:36:36.408Z,18.65
2022-12-04T10:39:13.513Z,34.10
2022-12-04T10:41:51.951Z,18.05
2022-12-04T10:44:21.410Z,18.07
2022-12-04T10:46:52.051Z,17.10
2022-12-04T10:49:23.297Z,18.02
2022-12-04T10:51:51.442Z,20.65
2022-12-04T10:54:22.679Z,20.15
2022-12-04T10:56:57.176Z,15.35
2022-12-04T10:59:26.057Z,18.63
2022-12-04T11:02:06.224Z,19.13
2022-12-04T11:04:36.519Z,19.17
2022-12-04T11:07:06.605Z,16.55
2022-12-04T11:09:35.211Z,22.30
2022-12-04T11:12:11.120Z,22.83
2022-12-04T11:14:44.055Z,21.60
2022-12-04T11:17:19.491Z,19.33
2022-12-04T11:19:47.847Z,16.52
2022-12-04T11:22:19.218Z,19.50
2022-12-04T11:24:54.403Z,18.90
2022-12-04T11:27:27.901Z,19.63
2022-12-04T11:29:57.434Z,18.88
2022-12-04T11:32:27.893Z,21.23
2022-12-04T11:35:00.363Z,23.33
2022-12-04T11:37:31.868Z,18.73
2022-12-04T11:40:00.393Z,19.52
2022-12-04T11:42:31.617Z,19.08
2022-12-04T11:45:01.972Z,21.55
2022-12-04T11:47:32.396Z,17.55
2022-12-04T11:50:03.968Z,18.80
2022-12-04T11:52:49.108Z,18.27
2022-12-04T11:55:28.345Z,19.15
2022-12-04T11:58:23.582Z,22.50
2022-12-04T12:01:00.636Z,20.60
2022-12-04T12:03:35.777Z,17.90
2022-12-04T12:06:29.805Z,19.38
2022-12-04T12:09:16.798Z,20.38
2022-12-04T12:11:53.103Z,19.45
2022-12-04T12:14:33.474Z,21.60
2022-12-04T12:17:13.233Z,21.38
2022-12-04T12:20:04.298Z,21.88
2022-12-04T12:22:57.980Z,21.17
2022-12-04T12:25:32.207Z,16.88
2022-12-04T12:28:13.706Z,20.83
2022-12-04T12:31:04.059Z,17.92
2022-12-04T12:33:38.007Z,20.48
2022-12-04T12:36:10.394Z,18.30
2022-12-04T12:38:45.421Z,17.35
2022-12-04T12:41:16.715Z,24.50
2022-12-04T12:43:49.137Z,27.48
2022-12-04T12:46:26.213Z,20.70
2022-12-04T12:49:02.274Z,20.92
2022-12-04T12:51:36.630Z,21.15
2022-12-04T12:54:16.446Z,31.10
2022-12-04T12:56:52.402Z,26.30
2022-12-04T12:59:25.314Z,21.33
2022-12-04T13:02:01.059Z,26.42
2022-12-04T13:04:38.881Z,26.67
2022-12-04T13:07:24.723Z,28.02
2022-12-04T13:09:59.501Z,25.27
2022-12-04T13:12:28.758Z,23.83
2022-12-04T13:14:57.043Z,21.83
2022-12-04T13:17:33.256Z,24.60
2022-12-04T13:20:09.848Z,23.00
2022-12-04T13:22:48.432Z,23.92
2022-12-04T13:25:31.487Z,26.77
2022-12-04T13:28:12.232Z,24.60
2022-12-04T13:30:47.749Z,23.45
2022-12-04T13:33:45.359Z,23.90
2022-12-04T13:36:27.010Z,26.13
2022-12-04T13:39:19.681Z,24.63
2022-12-04T13:41:48.469Z,31.20
2022-12-04T13:44:23.442Z,23.33
2022-12-04T13:46:55.500Z,27.52
2022-12-04T13:49:30.565Z,26.02
2022-12-04T13:52:00.333Z,25.92
2022-12-04T13:54:32.231Z,27.15
2022-12-04T13:57:19.598Z,24.13
2022-12-04T13:59:48.945Z,25.40
2022-12-04T14:02:27.863Z,24.58
2022-12-04T14:05:02.915Z,27.90
2022-12-04T14:07:33.865Z,25.92
2022-12-04T14:10:05.704Z,25.75
2022-12-04T14:12:37.657Z,20.05
2022-12-04T14:15:08.712Z,23.95
2022-12-04T14:17:39.515Z,20.80
2022-12-04T14:20:23.132Z,25.00
2022-12-04T14:22:51.442Z,23.10
2022-12-04T14:25:35.817Z,23.20
2022-12-04T14:28:26.016Z,25.77
2022-12-04T14:31:24.931Z,21.40
2022-12-04T14:33:57.408Z,25.30
2022-12-04T14:36:29.353Z,26.98
2022-12-04T14:39:06.186Z,21.35
2022-12-04T14:41:34.472Z,21.13
2022-12-04T14:44:03.246Z,20.25
2022-12-04T14:46:40.391Z,20.98
2022-12-04T14:49:22.122Z,19.70
2022-12-04T14:52:00.607Z,18.05
2022-12-04T14:54:34.701Z,20.25
2022-12-04T14:57:15.578Z,18.55
2022-12-04T14:59:46.878Z,17.23
2022-12-04T15:02:19.024Z,21.75
2022-12-04T15:04:48.723Z,19.10
2022-12-04T15:07:23.042Z,20.10
2022-12-04T15:10:13.093Z,18.95
2022-12-04T15:12:46.260Z,21.33
2022-12-04T15:15:19.541Z,20.88
2022-12-04T15:18:01.530Z,20.45
2022-12-04T15:20:38.638Z,16.42
2022-12-04T15:23:14.113Z,20.80
2022-12-04T15:25:46.737Z,19.67
2022-12-04T15:28:18.987Z,17.25
2022-12-04T15:30:49.440Z,22.42
2022-12-04T15:33:21.919Z,16.42
2022-12-04T15:35:55.186Z,22.33
2022-12-04T15:38:25.312Z,22.58
2022-12-04T15:40:56.094Z,19.17
2022-12-04T15:43:30.582Z,24.45
2022-12-04T15:45:59.706Z,21.98
2022-12-04T15:48:29.691Z,29.15
2022-12-04T15:51:00.600Z,25.63
2022-12-04T15:53:32.482Z,22.85
2022-12-04T15:56:04.346Z,25.08
2022-12-04T15:58:34.242Z,20.23
2022-12-04T16:01:04.798Z,22.02
2022-12-04T16:03:47.908Z,19.40
2022-12-04T16:06:19.704Z,17.67
2022-12-04T16:08:51.123Z,22.38
2022-12-04T16:11:34.303Z,18.75
2022-12-04T16:14:19.735Z,20.92
2022-12-04T16:16:49.834Z,21.92
2022-12-04T16:19:28.728Z,22.08
2022-12-04T16:21:57.391Z,20.08
2022-12-04T16:24:27.409Z,24.55
2022-12-04T16:26:57.164Z,21.73
2022-12-04T16:29:25.892Z,22.45
2022-12-04T16:31:57.166Z,27.35
2022-12-04T16:34:29.554Z,22.02
2022-12-04T16:36:57.884Z,27.38
2022-12-04T16:39:27.535Z,27.40
2022-12-04T16:41:55.846Z,28.08
2022-12-04T16:44:24.160Z,29.15
2022-12-04T16:46:52.517Z,22.50
2022-12-04T16:49:20.811Z,21.48
2022-12-04T16:51:50.778Z,22.90
2022-12-04T16:54:19.625Z,23.55
2022-12-04T16:56:49.357Z,21.70
2022-12-04T16:59:17.736Z,19.70
2022-12-04T17:01:48.661Z,22.27
2022-12-04T17:04:17.889Z,23.58
2022-12-04T17:06:46.896Z,23.70
2022-12-04T17:09:15.366Z,24.67
2022-12-04T17:11:44.074Z,27.40
2022-12-04T17:14:13.824Z,23.30
2022-12-04T17:16:45.244Z,21.17
2022-12-04T17:19:14.507Z,29.42
2022-12-04T17:21:42.938Z,25.27
2022-12-04T17:24:11.575Z,23.85
2022-12-04T17:26:39.950Z,27.83
2022-12-04T17:29:08.208Z,30.00
2022-12-04T17:31:37.747Z,28.30
2022-12-04T17:34:06.026Z,28.20
2022-12-04T17:36:34.320Z,27.52
2022-12-04T17:39:02.915Z,27.20
2022-12-04T17:41:31.476Z,29.38
2022-12-04T17:44:01.749Z,25.63
2022-12-04T17:46:30.222Z,21.25
2022-12-04T17:49:05.333Z,27.58
2022-12-04T17:51:36.032Z,30.50
2022-12-04T17:54:04.408Z,23.35
2022-12-04T17:56:32.932Z,27.58
2022-12-04T17:59:01.184Z,27.83
2022-12-04T18:01:31.018Z,22.23
2022-12-04T18:04:03.937Z,26.98
2022-12-04T18:06:33.886Z,27.60
2022-12-04T18:09:02.652Z,27.98
2022-12-04T18:11:33.147Z,24.70
2022-12-04T18:14:06.002Z,32.42
2022-12-04T18:16:40.547Z,28.30
2022-12-04T18:19:10.213Z,28.02
2022-12-04T18:21:38.403Z,30.90
2022-12-04T18:24:08.028Z,24.70
2022-12-04T18:26:38.967Z,34.15
2022-12-04T18:29:08.514Z,38.20
2022-12-04T18:31:36.964Z,36.70
2022-12-04T18:34:07.127Z,24.55
2022-12-04T18:36:38.878Z,29.02
2022-12-04T18:39:10.437Z,35.10
2022-12-04T18:41:38.827Z,27.95
2022-12-04T18:44:07.440Z,25.60
2022-12-04T18:46:35.784Z,33.45
2022-12-04T18:49:04.424Z,28.52
2022-12-04T18:51:34.765Z,30.33
2022-12-04T18:54:06.370Z,27.27
2022-12-04T18:56:35.912Z,35.55
2022-12-04T18:59:07.096Z,24.60
2022-12-04T19:01:35.560Z,26.08
2022-12-04T19:04:05.969Z,36.00
2022-12-04T19:06:36.612Z,26.98
2022-12-04T19:09:08.929Z,28.88
2022-12-04T19:11:38.302Z,31.17
2022-12-04T19:14:16.225Z,30.75
2022-12-04T19:16:49.721Z,28.00
2022-12-04T19:19:19.273Z,34.58
2022-12-04T19:21:47.528Z,28.40
2022-12-04T19:24:17.751Z,30.00
2022-12-04T19:26:47.802Z,24.92
2022-12-04T19:29:16.283Z,26.63
2022-12-04T19:31:44.643Z,26.58
2022-12-04T19:34:12.918Z,24.52
2022-12-04T19:36:42.759Z,27.52
2022-12-04T19:39:11.469Z,25.83
2022-12-04T19:41:41.560Z,26.23
2022-12-04T19:44:46.787Z,25.30
2022-12-04T19:46:59.323Z,27.95
2022-12-04T19:49:27.504Z,30.17
2022-12-04T19:51:55.691Z,27.58
2022-12-04T19:54:23.872Z,25.90
2022-12-04T19:56:53.412Z,24.30
2022-12-04T19:59:22.455Z,26.52
2022-12-04T20:01:50.917Z,22.83
2022-12-04T20:04:19.935Z,28.25
2022-12-04T20:06:48.246Z,26.55
2022-12-04T20:09:20.269Z,24.33
2022-12-04T20:11:48.695Z,21.95
2022-12-04T20:14:18.897Z,24.73
2022-12-04T20:16:47.801Z,25.13
2022-12-04T20:19:18.687Z,24.38
2022-12-04T20:21:47.659Z,22.33
2022-12-04T20:24:17.594Z,28.13
2022-12-04T20:26:47.968Z,19.27
2022-12-04T20:29:19.186Z,26.40
2022-12-04T20:31:48.153Z,20.48
2022-12-04T20:34:18.280Z,18.77
2022-12-04T20:36:48.265Z,25.42
2022-12-04T20:39:17.875Z,25.52
2022-12-04T20:41:46.539Z,22.80
2022-12-04T20:44:18.189Z,25.13
2022-12-04T20:46:46.685Z,27.10
2022-12-04T20:49:21.060Z,18.23
2022-12-04T20:51:50.680Z,24.55
2022-12-04T20:54:20.936Z,20.17
2022-12-04T20:56:49.772Z,21.52
2022-12-04T20:59:20.856Z,28.90
2022-12-04T21:01:50.593Z,22.75
2022-12-04T21:04:19.612Z,23.55
2022-12-04T21:06:48.425Z,24.42
2022-12-04T21:09:18.396Z,23.67
2022-12-04T21:11:49.078Z,17.88
2022-12-04T21:14:38.663Z,18.00
2022-12-04T21:17:09.474Z,15.75
2022-12-04T21:19:38.750Z,17.38
2022-12-04T21:22:07.093Z,19.02
2022-12-04T21:24:38.766Z,16.15
2022-12-04T21:27:09.083Z,17.25
2022-12-04T21:29:39.751Z,19.23
2022-12-04T21:32:08.764Z,22.25
2022-12-04T21:34:37.042Z,17.90
2022-12-04T21:37:05.447Z,17.55
2022-12-04T21:39:33.891Z,14.27
2022-12-04T21:42:19.608Z,16.45
2022-12-04T21:44:48.998Z,14.93
2022-12-04T21:47:17.244Z,18.25
2022-12-04T21:49:46.414Z,19.52
2022-12-04T21:52:14.878Z,22.23
2022-12-04T21:54:43.096Z,18.25
2022-12-04T21:57:11.375Z,21.10
2022-12-04T21:59:39.573Z,19.77
2022-12-04T22:02:09.235Z,24.38
2022-12-04T22:04:38.673Z,17.20
2022-12-04T22:07:07.064Z,17.50
2022-12-04T22:09:35.289Z,17.15
2022-12-04T22:12:14.681Z,17.65
2022-12-04T22:14:51.672Z,18.52
2022-12-04T22:17:21.152Z,17.20
2022-12-04T22:19:49.739Z,18.13
2022-12-04T22:22:18.009Z,15.30
2022-12-04T22:24:46.217Z,19.60
2022-12-04T22:27:15.440Z,16.35
2022-12-04T22:30:02.341Z,20.38
2022-12-04T22:32:32.148Z,19.80
2022-12-04T22:35:00.295Z,16.00
2022-12-04T22:37:28.897Z,18.23
2022-12-04T22:39:57.180Z,17.90
2022-12-04T22:42:25.669Z,18.08
2022-12-04T22:44:53.854Z,17.33
2022-12-04T22:47:22.206Z,21.88
2022-12-04T22:49:51.833Z,16.02
2022-12-04T22:52:20.345Z,17.20
2022-12-04T22:54:50.729Z,14.70
2022-12-04T22:57:19.127Z,17.27
2022-12-04T22:59:47.559Z,19.10
2022-12-04T23:02:15.994Z,18.70
2022-12-04T23:04:45.208Z,21.00
2022-12-04T23:07:14.816Z,22.25
2022-12-04T23:09:43.341Z,17.95
2022-12-04T23:12:11.523Z,16.75
2022-12-04T23:14:39.652Z,16.35
2022-12-04T23:17:07.953Z,17.27
2022-12-04T23:19:36.286Z,20.77
2022-12-04T23:22:04.783Z,21.45
2022-12-04T23:24:38.090Z,18.80
2022-12-04T23:27:06.570Z,16.10
2022-12-04T23:29:52.884Z,16.63
2022-12-04T23:32:21.621Z,17.42
2022-12-04T23:34:49.907Z,20.27
2022-12-04T23:37:18.144Z,18.63
2022-12-04T23:39:47.808Z,16.60
2022-12-04T23:42:16.061Z,18.60
2022-12-04T23:44:44.192Z,16.45
2022-12-04T23:47:12.525Z,14.65
2022-12-04T23:49:40.707Z,13.18
2022-12-04T23:52:08.960Z,13.52
2022-12-04T23:54:37.750Z,18.50
2022-12-04T23:57:07.564Z,16.67
2022-12-04T23:59:35.712Z,15.38
